sensor_id;sensor_type;location;lat;lon;timestamp;temperature;humidity
20364;DHT22;10340;53.664;9.908;2023-04-03T00:00:35;0.10;99.90
20364;DHT22;10340;53.664;9.908;2023-04-03T00:03:02;0.10;99.90
20364;DHT22;10340;53.664;9.908;2023-04-03T00:05:29;0.10;99.90
20364;DHT22;10340;53.664;9.908;2023-04-03T00:07:58;0.10;99.90
20364;DHT22;10340;53.664;9.908;2023-04-03T00:10:25;0.10;99.90
20364;DHT22;10340;53.664;9.908;2023-04-03T00:12:52;0.00;99.90
20364;DHT22;10340;53.664;9.908;2023-04-03T00:15:19;0.00;99.90
20364;DHT22;10340;53.664;9.908;2023-04-03T00:17:46;0.00;99.90
20364;DHT22;10340;53.664;9.908;2023-04-03T00:20:13;0.00;99.90
20364;DHT22;10340;53.664;9.908;2023-04-03T00:22:40;-0.10;99.90
20364;DHT22;10340;53.664;9.908;2023-04-03T00:25:09;-0.10;99.90
20364;DHT22;10340;53.664;9.908;2023-04-03T00:27:36;-0.10;99.90
20364;DHT22;10340;53.664;9.908;2023-04-03T00:30:06;-0.10;99.90
20364;DHT22;10340;53.664;9.908;2023-04-03T00:32:33;-0.10;99.90
20364;DHT22;10340;53.664;9.908;2023-04-03T00:35:00;-0.10;99.90
20364;DHT22;10340;53.664;9.908;2023-04-03T00:37:27;-0.10;99.90
20364;DHT22;10340;53.664;9.908;2023-04-03T00:39:54;-0.10;99.90
20364;DHT22;10340;53.664;9.908;2023-04-03T00:42:23;-0.20;99.90
20364;DHT22;10340;53.664;9.908;2023-04-03T00:48:08;-0.20;99.90
20364;DHT22;10340;53.664;9.908;2023-04-03T00:50:38;-0.20;99.90
20364;DHT22;10340;53.664;9.908;2023-04-03T00:53:08;-0.10;99.90
20364;DHT22;10340;53.664;9.908;2023-04-03T00:55:38;-0.30;99.90
20364;DHT22;10340;53.664;9.908;2023-04-03T00:58:07;-0.30;99.90
20364;DHT22;10340;53.664;9.908;2023-04-03T01:00:36;-0.40;99.90
20364;DHT22;10340;53.664;9.908;2023-04-03T01:03:04;-0.40;99.90
20364;DHT22;10340;53.664;9.908;2023-04-03T01:05:32;-0.40;99.90
20364;DHT22;10340;53.664;9.908;2023-04-03T01:07:59;-0.50;99.90
20364;DHT22;10340;53.664;9.908;2023-04-03T01:10:26;-0.50;99.90
20364;DHT22;10340;53.664;9.908;2023-04-03T01:12:53;-0.60;99.90
20364;DHT22;10340;53.664;9.908;2023-04-03T01:15:24;-0.60;99.90
20364;DHT22;10340;53.664;9.908;2023-04-03T01:17:53;-0.70;99.90
20364;DHT22;10340;53.664;9.908;2023-04-03T01:23:50;-0.70;99.90
20364;DHT22;10340;53.664;9.908;2023-04-03T01:26:19;-0.70;99.90
20364;DHT22;10340;53.664;9.908;2023-04-03T01:28:47;-0.70;99.90
20364;DHT22;10340;53.664;9.908;2023-04-03T01:31:22;-0.70;99.90
20364;DHT22;10340;53.664;9.908;2023-04-03T01:33:53;-0.70;99.90
20364;DHT22;10340;53.664;9.908;2023-04-03T01:36:22;-0.70;99.90
20364;DHT22;10340;53.664;9.908;2023-04-03T01:38:50;-0.80;99.90
20364;DHT22;10340;53.664;9.908;2023-04-03T01:41:17;-0.80;99.90
20364;DHT22;10340;53.664;9.908;2023-04-03T01:43:44;-0.80;99.90
20364;DHT22;10340;53.664;9.908;2023-04-03T01:46:11;-0.80;99.90
20364;DHT22;10340;53.664;9.908;2023-04-03T01:48:38;-0.80;99.90
20364;DHT22;10340;53.664;9.908;2023-04-03T01:51:07;-0.90;99.90
20364;DHT22;10340;53.664;9.908;2023-04-03T01:53:34;-0.90;99.90
20364;DHT22;10340;53.664;9.908;2023-04-03T01:58:28;-0.90;99.90
20364;DHT22;10340;53.664;9.908;2023-04-03T02:00:55;-0.90;99.90
20364;DHT22;10340;53.664;9.908;2023-04-03T02:03:22;-0.80;99.90
20364;DHT22;10340;53.664;9.908;2023-04-03T02:05:50;-1.00;99.90
20364;DHT22;10340;53.664;9.908;2023-04-03T02:08:18;-1.00;99.90
20364;DHT22;10340;53.664;9.908;2023-04-03T02:10:47;-1.00;99.90
20364;DHT22;10340;53.664;9.908;2023-04-03T02:13:14;-0.90;99.90
20364;DHT22;10340;53.664;9.908;2023-04-03T02:15:42;-1.00;99.90
20364;DHT22;10340;53.664;9.908;2023-04-03T02:18:09;-0.90;99.90
20364;DHT22;10340;53.664;9.908;2023-04-03T02:20:36;-0.90;99.90
20364;DHT22;10340;53.664;9.908;2023-04-03T02:25:33;-1.00;99.90
20364;DHT22;10340;53.664;9.908;2023-04-03T02:28:00;-1.00;99.90
20364;DHT22;10340;53.664;9.908;2023-04-03T02:30:27;-1.10;99.90
20364;DHT22;10340;53.664;9.908;2023-04-03T02:32:54;-1.10;99.90
20364;DHT22;10340;53.664;9.908;2023-04-03T02:35:21;-1.10;99.90
20364;DHT22;10340;53.664;9.908;2023-04-03T02:37:48;-1.20;99.90
20364;DHT22;10340;53.664;9.908;2023-04-03T02:40:15;-1.20;99.90
20364;DHT22;10340;53.664;9.908;2023-04-03T02:42:44;-1.10;99.90
20364;DHT22;10340;53.664;9.908;2023-04-03T02:45:11;-1.10;99.90
20364;DHT22;10340;53.664;9.908;2023-04-03T02:47:38;-1.10;99.90
20364;DHT22;10340;53.664;9.908;2023-04-03T02:50:05;-1.10;99.90
20364;DHT22;10340;53.664;9.908;2023-04-03T02:52:32;-1.60;99.90
20364;DHT22;10340;53.664;9.908;2023-04-03T02:54:59;-1.20;99.90
20364;DHT22;10340;53.664;9.908;2023-04-03T02:57:26;-1.20;99.90
20364;DHT22;10340;53.664;9.908;2023-04-03T02:59:54;-1.20;99.90
20364;DHT22;10340;53.664;9.908;2023-04-03T03:02:21;-1.10;99.90
20364;DHT22;10340;53.664;9.908;2023-04-03T03:04:48;-1.20;99.90
20364;DHT22;10340;53.664;9.908;2023-04-03T03:07:15;-1.30;99.90
20364;DHT22;10340;53.664;9.908;2023-04-03T03:09:42;-1.30;99.90
20364;DHT22;10340;53.664;9.908;2023-04-03T03:12:09;-1.30;99.90
20364;DHT22;10340;53.664;9.908;2023-04-03T03:14:36;-1.30;99.90
20364;DHT22;10340;53.664;9.908;2023-04-03T03:17:05;-1.40;99.90
20364;DHT22;10340;53.664;9.908;2023-04-03T03:19:32;-1.30;99.90
20364;DHT22;10340;53.664;9.908;2023-04-03T03:21:59;-1.30;99.90
20364;DHT22;10340;53.664;9.908;2023-04-03T03:24:26;-1.40;99.90
20364;DHT22;10340;53.664;9.908;2023-04-03T03:26:53;-1.40;99.90
20364;DHT22;10340;53.664;9.908;2023-04-03T03:29:20;-1.40;99.90
20364;DHT22;10340;53.664;9.908;2023-04-03T03:31:47;-1.50;99.90
20364;DHT22;10340;53.664;9.908;2023-04-03T03:34:15;-1.50;99.90
20364;DHT22;10340;53.664;9.908;2023-04-03T03:39:10;-1.50;99.90
20364;DHT22;10340;53.664;9.908;2023-04-03T03:41:37;-1.60;99.90
20364;DHT22;10340;53.664;9.908;2023-04-03T03:44:04;-1.60;99.90
20364;DHT22;10340;53.664;9.908;2023-04-03T03:46:31;-1.60;99.90
20364;DHT22;10340;53.664;9.908;2023-04-03T03:48:58;-1.60;99.90
20364;DHT22;10340;53.664;9.908;2023-04-03T03:51:27;-1.60;99.90
20364;DHT22;10340;53.664;9.908;2023-04-03T03:56:21;-1.70;99.90
20364;DHT22;10340;53.664;9.908;2023-04-03T03:58:48;-1.70;99.90
20364;DHT22;10340;53.664;9.908;2023-04-03T04:01:16;-1.70;99.90
20364;DHT22;10340;53.664;9.908;2023-04-03T04:03:43;-1.70;99.90
20364;DHT22;10340;53.664;9.908;2023-04-03T04:08:39;-1.70;99.90
20364;DHT22;10340;53.664;9.908;2023-04-03T04:11:06;-1.60;99.90
20364;DHT22;10340;53.664;9.908;2023-04-03T04:13:33;-1.70;99.90
20364;DHT22;10340;53.664;9.908;2023-04-03T04:16:01;-1.70;99.90
20364;DHT22;10340;53.664;9.908;2023-04-03T04:18:28;-1.70;99.90
20364;DHT22;10340;53.664;9.908;2023-04-03T04:20:55;-1.70;99.90
20364;DHT22;10340;53.664;9.908;2023-04-03T04:23:22;-1.70;99.90
20364;DHT22;10340;53.664;9.908;2023-04-03T04:25:51;-1.70;99.90
20364;DHT22;10340;53.664;9.908;2023-04-03T04:28:18;-1.70;99.90
20364;DHT22;10340;53.664;9.908;2023-04-03T04:30:45;-1.70;99.90
20364;DHT22;10340;53.664;9.908;2023-04-03T04:33:12;-1.80;99.90
20364;DHT22;10340;53.664;9.908;2023-04-03T04:35:41;-1.80;99.90
20364;DHT22;10340;53.664;9.908;2023-04-03T04:38:09;-1.80;99.90
20364;DHT22;10340;53.664;9.908;2023-04-03T04:40:36;-1.90;99.90
20364;DHT22;10340;53.664;9.908;2023-04-03T04:43:05;-1.80;99.90
20364;DHT22;10340;53.664;9.908;2023-04-03T04:45:32;-1.80;99.90
20364;DHT22;10340;53.664;9.908;2023-04-03T04:47:59;-1.80;99.90
20364;DHT22;10340;53.664;9.908;2023-04-03T04:50:26;-1.80;99.90
20364;DHT22;10340;53.664;9.908;2023-04-03T04:52:53;-1.80;99.90
20364;DHT22;10340;53.664;9.908;2023-04-03T04:55:20;-1.80;99.90
20364;DHT22;10340;53.664;9.908;2023-04-03T04:57:47;-1.80;99.90
20364;DHT22;10340;53.664;9.908;2023-04-03T05:00:16;-1.80;99.90
20364;DHT22;10340;53.664;9.908;2023-04-03T05:02:43;-1.80;99.90
20364;DHT22;10340;53.664;9.908;2023-04-03T05:05:10;-1.80;99.90
20364;DHT22;10340;53.664;9.908;2023-04-03T05:07:37;-1.80;99.90
20364;DHT22;10340;53.664;9.908;2023-04-03T05:10:05;-1.80;99.90
20364;DHT22;10340;53.664;9.908;2023-04-03T05:12:33;-2.20;99.90
20364;DHT22;10340;53.664;9.908;2023-04-03T05:17:28;-1.80;99.90
20364;DHT22;10340;53.664;9.908;2023-04-03T05:19:55;-1.80;99.90
20364;DHT22;10340;53.664;9.908;2023-04-03T05:22:22;-1.80;99.90
20364;DHT22;10340;53.664;9.908;2023-04-03T05:24:50;-1.80;99.90
20364;DHT22;10340;53.664;9.908;2023-04-03T05:27:17;-1.80;99.90
20364;DHT22;10340;53.664;9.908;2023-04-03T05:29:44;-1.70;99.90
20364;DHT22;10340;53.664;9.908;2023-04-03T05:32:11;-1.70;99.90
20364;DHT22;10340;53.664;9.908;2023-04-03T05:34:39;-1.70;99.90
20364;DHT22;10340;53.664;9.908;2023-04-03T05:37:06;-1.60;99.90
20364;DHT22;10340;53.664;9.908;2023-04-03T05:39:33;-1.50;99.90
20364;DHT22;10340;53.664;9.908;2023-04-03T05:42:01;-1.50;99.90
20364;DHT22;10340;53.664;9.908;2023-04-03T05:44:28;-1.40;99.90
20364;DHT22;10340;53.664;9.908;2023-04-03T05:46:55;-1.30;99.90
20364;DHT22;10340;53.664;9.908;2023-04-03T05:49:22;-1.20;99.90
20364;DHT22;10340;53.664;9.908;2023-04-03T05:51:51;-1.20;99.90
20364;DHT22;10340;53.664;9.908;2023-04-03T05:54:21;-1.10;99.90
20364;DHT22;10340;53.664;9.908;2023-04-03T05:56:50;-1.00;99.90
20364;DHT22;10340;53.664;9.908;2023-04-03T05:59:18;-0.90;99.90
20364;DHT22;10340;53.664;9.908;2023-04-03T06:01:46;-0.70;99.90
20364;DHT22;10340;53.664;9.908;2023-04-03T06:04:13;-0.70;99.90
20364;DHT22;10340;53.664;9.908;2023-04-03T06:06:45;-0.60;99.90
20364;DHT22;10340;53.664;9.908;2023-04-03T06:09:15;-0.50;99.90
20364;DHT22;10340;53.664;9.908;2023-04-03T06:11:42;-0.40;99.90
20364;DHT22;10340;53.664;9.908;2023-04-03T06:14:09;-0.30;99.90
20364;DHT22;10340;53.664;9.908;2023-04-03T06:16:37;-0.20;99.90
20364;DHT22;10340;53.664;9.908;2023-04-03T06:19:05;-0.20;99.90
20364;DHT22;10340;53.664;9.908;2023-04-03T06:21:32;-0.10;99.90
20364;DHT22;10340;53.664;9.908;2023-04-03T06:23:59;0.00;99.90
20364;DHT22;10340;53.664;9.908;2023-04-03T06:26:28;0.10;99.90
20364;DHT22;10340;53.664;9.908;2023-04-03T06:28:55;0.20;99.90
20364;DHT22;10340;53.664;9.908;2023-04-03T06:31:22;0.40;99.90
20364;DHT22;10340;53.664;9.908;2023-04-03T06:36:18;0.60;99.90
20364;DHT22;10340;53.664;9.908;2023-04-03T06:38:46;0.70;99.90
20364;DHT22;10340;53.664;9.908;2023-04-03T06:41:14;1.00;99.90
20364;DHT22;10340;53.664;9.908;2023-04-03T06:43:43;1.00;99.90
20364;DHT22;10340;53.664;9.908;2023-04-03T06:46:14;1.00;99.90
20364;DHT22;10340;53.664;9.908;2023-04-03T06:48:43;1.10;99.90
20364;DHT22;10340;53.664;9.908;2023-04-03T06:51:17;1.30;99.90
20364;DHT22;10340;53.664;9.908;2023-04-03T06:53:45;1.40;99.90
20364;DHT22;10340;53.664;9.908;2023-04-03T06:56:12;1.60;99.90
20364;DHT22;10340;53.664;9.908;2023-04-03T06:58:39;1.60;99.90
20364;DHT22;10340;53.664;9.908;2023-04-03T07:01:08;1.70;99.90
20364;DHT22;10340;53.664;9.908;2023-04-03T07:03:36;1.80;99.90
20364;DHT22;10340;53.664;9.908;2023-04-03T07:06:04;2.00;99.90
20364;DHT22;10340;53.664;9.908;2023-04-03T07:08:33;2.00;99.90
20364;DHT22;10340;53.664;9.908;2023-04-03T07:11:00;2.10;99.90
20364;DHT22;10340;53.664;9.908;2023-04-03T07:13:27;2.30;99.90
20364;DHT22;10340;53.664;9.908;2023-04-03T07:15:54;2.40;99.90
20364;DHT22;10340;53.664;9.908;2023-04-03T07:18:23;2.50;99.90
20364;DHT22;10340;53.664;9.908;2023-04-03T07:20:50;2.60;99.90
20364;DHT22;10340;53.664;9.908;2023-04-03T07:25:46;3.00;99.90
20364;DHT22;10340;53.664;9.908;2023-04-03T07:30:43;3.30;99.90
20364;DHT22;10340;53.664;9.908;2023-04-03T07:35:40;3.60;99.90
20364;DHT22;10340;53.664;9.908;2023-04-03T07:40:36;3.80;99.90
20364;DHT22;10340;53.664;9.908;2023-04-03T07:45:34;4.00;99.90
20364;DHT22;10340;53.664;9.908;2023-04-03T07:52:59;4.20;99.90
20364;DHT22;10340;53.664;9.908;2023-04-03T08:10:57;4.80;99.90
20364;DHT22;10340;53.664;9.908;2023-04-03T08:16:18;5.00;99.90
20364;DHT22;10340;53.664;9.908;2023-04-03T08:18:47;5.20;99.90
20364;DHT22;10340;53.664;9.908;2023-04-03T08:26:15;5.40;99.90
20364;DHT22;10340;53.664;9.908;2023-04-03T08:28:46;5.40;99.90
20364;DHT22;10340;53.664;9.908;2023-04-03T08:31:16;5.40;99.90
20364;DHT22;10340;53.664;9.908;2023-04-03T08:33:47;5.40;99.90
20364;DHT22;10340;53.664;9.908;2023-04-03T08:36:18;5.80;99.90
20364;DHT22;10340;53.664;9.908;2023-04-03T08:41:31;5.60;99.90
20364;DHT22;10340;53.664;9.908;2023-04-03T08:44:21;5.90;99.90
20364;DHT22;10340;53.664;9.908;2023-04-03T08:47:08;6.00;99.90
20364;DHT22;10340;53.664;9.908;2023-04-03T08:49:42;5.90;99.90
20364;DHT22;10340;53.664;9.908;2023-04-03T08:52:15;6.00;99.90
20364;DHT22;10340;53.664;9.908;2023-04-03T08:54:52;6.00;99.90
20364;DHT22;10340;53.664;9.908;2023-04-03T08:57:32;6.20;99.90
20364;DHT22;10340;53.664;9.908;2023-04-03T09:00:03;6.40;99.90
20364;DHT22;10340;53.664;9.908;2023-04-03T09:02:34;6.30;99.90
20364;DHT22;10340;53.664;9.908;2023-04-03T09:05:29;6.10;99.90
20364;DHT22;10340;53.664;9.908;2023-04-03T09:08:16;5.80;99.90
20364;DHT22;10340;53.664;9.908;2023-04-03T09:10:45;6.30;99.90
20364;DHT22;10340;53.664;9.908;2023-04-03T09:13:22;6.30;99.90
20364;DHT22;10340;53.664;9.908;2023-04-03T09:15:52;6.40;99.90
20364;DHT22;10340;53.664;9.908;2023-04-03T09:18:28;6.40;99.90
20364;DHT22;10340;53.664;9.908;2023-04-03T09:21:02;6.50;99.90
20364;DHT22;10340;53.664;9.908;2023-04-03T09:23:40;6.80;99.90
20364;DHT22;10340;53.664;9.908;2023-04-03T09:26:18;6.70;99.90
20364;DHT22;10340;53.664;9.908;2023-04-03T09:28:49;6.60;99.90
20364;DHT22;10340;53.664;9.908;2023-04-03T09:31:36;6.80;99.90
20364;DHT22;10340;53.664;9.908;2023-04-03T09:34:06;6.80;99.90
20364;DHT22;10340;53.664;9.908;2023-04-03T09:37:03;6.90;99.90
20364;DHT22;10340;53.664;9.908;2023-04-03T09:39:50;7.00;99.90
20364;DHT22;10340;53.664;9.908;2023-04-03T09:42:22;7.00;99.90
20364;DHT22;10340;53.664;9.908;2023-04-03T09:44:56;7.00;99.90
20364;DHT22;10340;53.664;9.908;2023-04-03T09:47:37;6.90;99.90
20364;DHT22;10340;53.664;9.908;2023-04-03T09:50:37;6.90;99.90
20364;DHT22;10340;53.664;9.908;2023-04-03T09:53:43;7.00;99.90
20364;DHT22;10340;53.664;9.908;2023-04-03T09:56:25;7.10;99.90
20364;DHT22;10340;53.664;9.908;2023-04-03T09:59:18;7.10;99.90
20364;DHT22;10340;53.664;9.908;2023-04-03T10:01:57;6.90;99.90
20364;DHT22;10340;53.664;9.908;2023-04-03T10:06:58;6.80;99.90
20364;DHT22;10340;53.664;9.908;2023-04-03T10:09:37;7.00;99.90
20364;DHT22;10340;53.664;9.908;2023-04-03T10:12:09;7.00;99.90
20364;DHT22;10340;53.664;9.908;2023-04-03T10:14:38;7.00;99.90
20364;DHT22;10340;53.664;9.908;2023-04-03T10:17:18;7.00;99.90
20364;DHT22;10340;53.664;9.908;2023-04-03T10:19:49;7.20;99.90
20364;DHT22;10340;53.664;9.908;2023-04-03T10:22:33;7.30;99.90
20364;DHT22;10340;53.664;9.908;2023-04-03T10:25:23;7.50;99.90
20364;DHT22;10340;53.664;9.908;2023-04-03T10:28:00;7.80;99.90
20364;DHT22;10340;53.664;9.908;2023-04-03T10:30:42;8.00;99.90
20364;DHT22;10340;53.664;9.908;2023-04-03T10:33:31;8.00;99.90
20364;DHT22;10340;53.664;9.908;2023-04-03T10:36:20;7.90;99.90
20364;DHT22;10340;53.664;9.908;2023-04-03T10:39:02;7.90;99.90
20364;DHT22;10340;53.664;9.908;2023-04-03T10:41:46;8.00;99.90
20364;DHT22;10340;53.664;9.908;2023-04-03T10:44:30;7.90;99.90
20364;DHT22;10340;53.664;9.908;2023-04-03T10:47:05;8.10;99.90
20364;DHT22;10340;53.664;9.908;2023-04-03T10:49:45;8.10;99.90
20364;DHT22;10340;53.664;9.908;2023-04-03T10:52:36;8.10;99.90
20364;DHT22;10340;53.664;9.908;2023-04-03T10:55:14;8.10;99.90
20364;DHT22;10340;53.664;9.908;2023-04-03T10:57:48;8.10;99.90
20364;DHT22;10340;53.664;9.908;2023-04-03T11:03:08;8.20;99.90
20364;DHT22;10340;53.664;9.908;2023-04-03T11:05:53;7.90;99.90
20364;DHT22;10340;53.664;9.908;2023-04-03T11:08:36;8.10;99.90
20364;DHT22;10340;53.664;9.908;2023-04-03T11:11:08;8.10;99.90
20364;DHT22;10340;53.664;9.908;2023-04-03T11:13:41;8.40;99.90
20364;DHT22;10340;53.664;9.908;2023-04-03T11:16:15;8.60;99.90
20364;DHT22;10340;53.664;9.908;2023-04-03T11:18:48;8.60;99.90
20364;DHT22;10340;53.664;9.908;2023-04-03T11:21:21;8.70;99.90
20364;DHT22;10340;53.664;9.908;2023-04-03T11:23:51;8.70;99.90
20364;DHT22;10340;53.664;9.908;2023-04-03T11:26:21;8.70;99.90
20364;DHT22;10340;53.664;9.908;2023-04-03T11:28:53;8.80;99.90
20364;DHT22;10340;53.664;9.908;2023-04-03T11:31:37;8.70;99.90
20364;DHT22;10340;53.664;9.908;2023-04-03T11:34:21;8.70;99.90
20364;DHT22;10340;53.664;9.908;2023-04-03T11:36:55;8.70;99.90
20364;DHT22;10340;53.664;9.908;2023-04-03T11:39:26;8.60;99.90
20364;DHT22;10340;53.664;9.908;2023-04-03T11:42:13;8.70;99.90
20364;DHT22;10340;53.664;9.908;2023-04-03T11:47:11;8.70;99.90
20364;DHT22;10340;53.664;9.908;2023-04-03T11:50:00;9.60;99.90
20364;DHT22;10340;53.664;9.908;2023-04-03T11:56:31;8.80;99.90
20364;DHT22;10340;53.664;9.908;2023-04-03T11:59:23;8.80;99.90
20364;DHT22;10340;53.664;9.908;2023-04-03T12:05:27;9.00;99.90
20364;DHT22;10340;53.664;9.908;2023-04-03T12:08:24;9.10;99.90
20364;DHT22;10340;53.664;9.908;2023-04-03T12:11:24;9.20;99.90
20364;DHT22;10340;53.664;9.908;2023-04-03T12:14:44;9.30;99.90
20364;DHT22;10340;53.664;9.908;2023-04-03T12:17:20;9.30;99.90
20364;DHT22;10340;53.664;9.908;2023-04-03T12:22:25;9.80;99.90
20364;DHT22;10340;53.664;9.908;2023-04-03T12:24:55;10.20;99.90
20364;DHT22;10340;53.664;9.908;2023-04-03T12:30:21;9.10;99.90
20364;DHT22;10340;53.664;9.908;2023-04-03T12:33:26;9.00;99.90
20364;DHT22;10340;53.664;9.908;2023-04-03T12:36:04;8.30;99.90
20364;DHT22;10340;53.664;9.908;2023-04-03T12:39:04;8.10;99.90
20364;DHT22;10340;53.664;9.908;2023-04-03T12:41:51;8.10;99.90
20364;DHT22;10340;53.664;9.908;2023-04-03T12:44:33;8.20;99.90
20364;DHT22;10340;53.664;9.908;2023-04-03T12:47:16;8.30;99.90
20364;DHT22;10340;53.664;9.908;2023-04-03T12:49:49;7.40;99.90
20364;DHT22;10340;53.664;9.908;2023-04-03T12:52:27;8.80;99.90
20364;DHT22;10340;53.664;9.908;2023-04-03T12:55:39;9.00;99.90
20364;DHT22;10340;53.664;9.908;2023-04-03T12:58:20;9.30;99.90
20364;DHT22;10340;53.664;9.908;2023-04-03T13:01:16;9.40;99.90
20364;DHT22;10340;53.664;9.908;2023-04-03T13:04:06;9.50;99.90
20364;DHT22;10340;53.664;9.908;2023-04-03T13:06:39;9.50;99.90
20364;DHT22;10340;53.664;9.908;2023-04-03T13:09:29;9.50;99.90
20364;DHT22;10340;53.664;9.908;2023-04-03T13:12:16;8.80;99.90
20364;DHT22;10340;53.664;9.908;2023-04-03T13:14:57;8.80;99.90
20364;DHT22;10340;53.664;9.908;2023-04-03T13:17:43;8.90;99.90
20364;DHT22;10340;53.664;9.908;2023-04-03T13:20:20;8.90;99.90
20364;DHT22;10340;53.664;9.908;2023-04-03T13:22:54;8.70;99.90
20364;DHT22;10340;53.664;9.908;2023-04-03T13:25:25;8.70;99.90
20364;DHT22;10340;53.664;9.908;2023-04-03T13:30:37;8.00;99.90
20364;DHT22;10340;53.664;9.908;2023-04-03T13:33:22;8.20;99.90
20364;DHT22;10340;53.664;9.908;2023-04-03T13:35:57;8.30;99.90
20364;DHT22;10340;53.664;9.908;2023-04-03T13:38:28;8.40;99.90
20364;DHT22;10340;53.664;9.908;2023-04-03T13:41:22;10.70;99.90
20364;DHT22;10340;53.664;9.908;2023-04-03T13:47:44;8.40;99.90
20364;DHT22;10340;53.664;9.908;2023-04-03T13:50:20;8.60;99.90
20364;DHT22;10340;53.664;9.908;2023-04-03T13:53:02;9.00;99.90
20364;DHT22;10340;53.664;9.908;2023-04-03T13:55:32;8.90;99.90
20364;DHT22;10340;53.664;9.908;2023-04-03T13:58:01;9.20;99.90
20364;DHT22;10340;53.664;9.908;2023-04-03T14:00:33;9.40;99.90
20364;DHT22;10340;53.664;9.908;2023-04-03T14:03:02;9.40;99.90
20364;DHT22;10340;53.664;9.908;2023-04-03T14:05:36;9.20;99.90
20364;DHT22;10340;53.664;9.908;2023-04-03T14:08:07;8.90;99.90
20364;DHT22;10340;53.664;9.908;2023-04-03T14:15:31;9.20;99.90
20364;DHT22;10340;53.664;9.908;2023-04-03T14:20:27;9.30;99.90
20364;DHT22;10340;53.664;9.908;2023-04-03T14:22:55;9.40;99.90
20364;DHT22;10340;53.664;9.908;2023-04-03T14:25:22;9.40;99.90
20364;DHT22;10340;53.664;9.908;2023-04-03T14:27:52;9.30;99.90
20364;DHT22;10340;53.664;9.908;2023-04-03T14:30:23;9.10;99.90
20364;DHT22;10340;53.664;9.908;2023-04-03T14:32:51;8.80;99.90
20364;DHT22;10340;53.664;9.908;2023-04-03T14:35:18;8.60;99.90
20364;DHT22;10340;53.664;9.908;2023-04-03T14:37:46;8.50;99.90
20364;DHT22;10340;53.664;9.908;2023-04-03T14:40:18;8.40;99.90
20364;DHT22;10340;53.664;9.908;2023-04-03T14:42:46;8.40;99.90
20364;DHT22;10340;53.664;9.908;2023-04-03T14:45:15;8.50;99.90
20364;DHT22;10340;53.664;9.908;2023-04-03T14:47:46;8.60;99.90
20364;DHT22;10340;53.664;9.908;2023-04-03T14:50:16;8.80;99.90
20364;DHT22;10340;53.664;9.908;2023-04-03T14:52:44;9.00;99.90
20364;DHT22;10340;53.664;9.908;2023-04-03T14:55:15;9.10;99.90
20364;DHT22;10340;53.664;9.908;2023-04-03T14:57:43;9.20;99.90
20364;DHT22;10340;53.664;9.908;2023-04-03T15:00:14;9.20;99.90
20364;DHT22;10340;53.664;9.908;2023-04-03T15:02:41;9.10;99.90
20364;DHT22;10340;53.664;9.908;2023-04-03T15:05:10;9.00;99.90
20364;DHT22;10340;53.664;9.908;2023-04-03T15:07:39;8.90;99.90
20364;DHT22;10340;53.664;9.908;2023-04-03T15:10:17;8.80;99.90
20364;DHT22;10340;53.664;9.908;2023-04-03T15:12:45;8.70;99.90
20364;DHT22;10340;53.664;9.908;2023-04-03T15:15:14;8.50;99.90
20364;DHT22;10340;53.664;9.908;2023-04-03T15:17:42;8.60;99.90
20364;DHT22;10340;53.664;9.908;2023-04-03T15:20:13;8.70;99.90
20364;DHT22;10340;53.664;9.908;2023-04-03T15:22:40;9.10;99.90
20364;DHT22;10340;53.664;9.908;2023-04-03T15:25:08;8.90;99.90
20364;DHT22;10340;53.664;9.908;2023-04-03T15:27:38;8.80;99.90
20364;DHT22;10340;53.664;9.908;2023-04-03T15:30:07;8.70;99.90
20364;DHT22;10340;53.664;9.908;2023-04-03T15:32:35;8.20;99.90
20364;DHT22;10340;53.664;9.908;2023-04-03T15:35:02;8.30;99.90
20364;DHT22;10340;53.664;9.908;2023-04-03T15:37:29;8.10;99.90
20364;DHT22;10340;53.664;9.908;2023-04-03T15:39:56;8.10;99.90
20364;DHT22;10340;53.664;9.908;2023-04-03T15:42:23;8.20;99.90
20364;DHT22;10340;53.664;9.908;2023-04-03T15:44:52;8.30;99.90
20364;DHT22;10340;53.664;9.908;2023-04-03T15:47:19;8.40;99.90
20364;DHT22;10340;53.664;9.908;2023-04-03T15:49:46;8.40;99.90
20364;DHT22;10340;53.664;9.908;2023-04-03T15:52:13;8.40;99.90
20364;DHT22;10340;53.664;9.908;2023-04-03T15:54:40;8.40;99.90
20364;DHT22;10340;53.664;9.908;2023-04-03T15:57:07;8.60;99.90
20364;DHT22;10340;53.664;9.908;2023-04-03T15:59:34;8.80;99.90
20364;DHT22;10340;53.664;9.908;2023-04-03T16:02:05;8.90;99.90
20364;DHT22;10340;53.664;9.908;2023-04-03T16:04:33;9.10;99.90
20364;DHT22;10340;53.664;9.908;2023-04-03T16:07:01;9.30;99.90
20364;DHT22;10340;53.664;9.908;2023-04-03T16:09:29;9.30;99.90
20364;DHT22;10340;53.664;9.908;2023-04-03T16:11:56;9.30;99.90
20364;DHT22;10340;53.664;9.908;2023-04-03T16:14:23;9.30;99.90
20364;DHT22;10340;53.664;9.908;2023-04-03T16:16:50;9.10;99.90
20364;DHT22;10340;53.664;9.908;2023-04-03T16:19:18;8.90;99.90
20364;DHT22;10340;53.664;9.908;2023-04-03T16:21:46;8.60;99.90
20364;DHT22;10340;53.664;9.908;2023-04-03T16:24:13;8.40;99.90
20364;DHT22;10340;53.664;9.908;2023-04-03T16:26:40;8.20;99.90
20364;DHT22;10340;53.664;9.908;2023-04-03T16:29:07;8.20;99.90
20364;DHT22;10340;53.664;9.908;2023-04-03T16:31:34;8.50;99.90
20364;DHT22;10340;53.664;9.908;2023-04-03T16:34:02;8.90;99.90
20364;DHT22;10340;53.664;9.908;2023-04-03T16:36:30;9.40;99.90
20364;DHT22;10340;53.664;9.908;2023-04-03T16:39:00;10.10;99.90
20364;DHT22;10340;53.664;9.908;2023-04-03T16:41:30;11.00;99.90
20364;DHT22;10340;53.664;9.908;2023-04-03T16:46:30;11.70;99.90
20364;DHT22;10340;53.664;9.908;2023-04-03T16:48:57;12.10;99.90
20364;DHT22;10340;53.664;9.908;2023-04-03T16:51:27;13.10;99.90
20364;DHT22;10340;53.664;9.908;2023-04-03T16:53:55;13.10;99.90
20364;DHT22;10340;53.664;9.908;2023-04-03T16:56:23;13.60;99.90
20364;DHT22;10340;53.664;9.908;2023-04-03T16:58:50;14.20;99.90
20364;DHT22;10340;53.664;9.908;2023-04-03T17:01:19;14.10;99.90
20364;DHT22;10340;53.664;9.908;2023-04-03T17:03:50;14.40;99.90
20364;DHT22;10340;53.664;9.908;2023-04-03T17:06:19;14.60;99.90
20364;DHT22;10340;53.664;9.908;2023-04-03T17:08:49;14.60;99.90
20364;DHT22;10340;53.664;9.908;2023-04-03T17:11:18;14.40;99.90
20364;DHT22;10340;53.664;9.908;2023-04-03T17:13:46;14.40;99.90
20364;DHT22;10340;53.664;9.908;2023-04-03T17:16:16;14.30;99.90
20364;DHT22;10340;53.664;9.908;2023-04-03T17:18:49;13.60;99.90
20364;DHT22;10340;53.664;9.908;2023-04-03T17:21:18;11.70;99.90
20364;DHT22;10340;53.664;9.908;2023-04-03T17:23:51;12.80;99.90
20364;DHT22;10340;53.664;9.908;2023-04-03T17:26:28;12.50;99.90
20364;DHT22;10340;53.664;9.908;2023-04-03T17:28:56;12.60;99.90
20364;DHT22;10340;53.664;9.908;2023-04-03T17:36:19;11.60;99.90
20364;DHT22;10340;53.664;9.908;2023-04-03T17:43:44;9.00;99.90
20364;DHT22;10340;53.664;9.908;2023-04-03T17:49:04;7.70;99.90
20364;DHT22;10340;53.664;9.908;2023-04-03T17:51:43;5.10;99.90
20364;DHT22;10340;53.664;9.908;2023-04-03T17:54:40;6.80;99.90
20364;DHT22;10340;53.664;9.908;2023-04-03T17:59:41;6.40;99.90
20364;DHT22;10340;53.664;9.908;2023-04-03T18:02:08;6.20;99.90
20364;DHT22;10340;53.664;9.908;2023-04-03T18:09:35;5.70;99.90
20364;DHT22;10340;53.664;9.908;2023-04-03T18:12:06;5.70;99.90